Time;durP1;ratioP1;P1;durP2;ratioP2;P2;SDS_P1;SDS_P2;PMS_P1;PMS_P2;Temp;Humidity;BMP_temperature;BMP_pressure;BME280_temperature;BME280_humidity;BME280_pressure;Samples;Min_cycle;Max_cycle;Signal;HPM_P1;HPM_P2
2022/05/17 00:01:43;;;;;;;9.23;4.90;;;17.70;1.00;;;;;;5073552;28;20581;-67
2022/05/17 00:04:09;;;;;;;10.90;4.27;;;17.60;1.00;;;;;;5073357;28;20169;-67
2022/05/17 00:06:35;;;;;;;16.93;4.73;;;17.50;1.00;;;;;;5073400;28;20222;-67
2022/05/17 00:09:01;;;;;;;12.40;4.93;;;17.40;1.00;;;;;;5073289;28;20188;-67
2022/05/17 00:11:28;;;;;;;11.90;4.60;;;17.50;1.00;;;;;;5071737;28;20211;-67
2022/05/17 00:13:54;;;;;;;12.40;4.70;;;17.70;1.00;;;;;;5073190;28;20180;-68
2022/05/17 00:16:21;;;;;;;11.70;4.67;;;17.80;1.00;;;;;;5073232;28;20255;-67
2022/05/17 00:18:46;;;;;;;14.00;5.27;;;18.00;1.00;;;;;;5073267;28;20176;-67
2022/05/17 00:21:12;;;;;;;15.10;4.97;;;17.90;1.00;;;;;;5073255;28;20180;-67
2022/05/17 00:23:38;;;;;;;18.17;5.20;;;18.00;1.00;;;;;;5072630;28;20175;-68
2022/05/17 00:26:06;;;;;;;10.80;4.87;;;18.00;1.00;;;;;;5072985;28;20172;-66
2022/05/17 00:28:33;;;;;;;11.57;5.33;;;18.10;1.00;;;;;;5072868;28;20161;-66
2022/05/17 00:31:00;;;;;;;14.20;5.30;;;18.20;99.90;;;;;;5073127;28;20261;-66
2022/05/17 00:33:26;;;;;;;12.73;5.60;;;18.30;99.90;;;;;;5073160;28;20177;-66
2022/05/17 00:35:52;;;;;;;11.37;4.97;;;18.50;99.90;;;;;;5073237;28;20207;-66
2022/05/17 00:38:17;;;;;;;13.33;6.10;;;18.60;1.00;;;;;;5073030;28;20219;-66
2022/05/17 00:40:44;;;;;;;6.87;4.07;;;18.70;99.90;;;;;;5072807;28;20234;-67
2022/05/17 00:43:14;;;;;;;6.10;3.67;;;18.80;99.90;;;;;;5072912;28;20176;-67
2022/05/17 00:45:46;;;;;;;7.93;3.97;;;18.90;1.00;;;;;;5073229;28;20193;-67
2022/05/17 00:48:12;;;;;;;7.30;3.60;;;19.00;1.00;;;;;;5072931;28;20164;-67
2022/05/17 00:50:46;;;;;;;4.73;3.30;;;19.00;99.90;;;;;;5073064;28;20235;-67
2022/05/17 00:53:18;;;;;;;6.03;3.20;;;19.10;1.00;;;;;;5072981;28;20165;-66
2022/05/17 00:55:56;;;;;;;6.67;3.63;;;19.10;1.00;;;;;;5072792;28;20644;-67
2022/05/17 00:58:35;;;;;;;4.45;2.70;;;19.20;1.00;;;;;;5071029;28;20659;-67
2022/05/17 01:01:07;;;;;;;5.00;2.30;;;19.20;1.00;;;;;;5072948;28;20271;-67
2022/05/17 01:03:51;;;;;;;4.13;2.20;;;19.20;99.90;;;;;;5072628;28;20179;-67
2022/05/17 01:06:18;;;;;;;3.17;1.90;;;19.30;1.00;;;;;;5072789;28;20628;-66
2022/05/17 01:08:44;;;;;;;4.57;2.30;;;19.40;99.90;;;;;;5072553;28;20621;-68
2022/05/17 01:11:09;;;;;;;6.63;2.60;;;19.40;99.90;;;;;;5072412;28;20252;-66
2022/05/17 01:16:22;;;;;;;7.83;4.60;;;19.50;99.90;;;;;;5072674;28;20192;-67
2022/05/17 01:18:47;;;;;;;4.78;2.38;;;19.40;1.00;;;;;;5072596;28;20212;-67
2022/05/17 01:21:13;;;;;;;6.10;2.55;;;19.50;99.90;;;;;;5072472;28;20211;-67
2022/05/17 01:23:39;;;;;;;4.05;2.58;;;19.60;99.90;;;;;;5072505;28;20165;-67
2022/05/17 01:26:06;;;;;;;3.75;2.20;;;19.60;17.40;;;;;;5070995;28;20598;-67
2022/05/17 01:28:36;;;;;;;4.15;2.40;;;19.50;36.50;;;;;;5072313;28;20173;-67
2022/05/17 01:31:05;;;;;;;5.03;2.22;;;19.40;99.90;;;;;;5072478;28;20208;-67
2022/05/17 01:33:33;;;;;;;3.53;2.00;;;19.40;91.70;;;;;;5072482;28;20172;-67
2022/05/17 01:36:00;;;;;;;4.93;2.33;;;19.40;99.90;;;;;;5073337;28;20635;-68
2022/05/17 01:38:27;;;;;;;4.13;2.10;;;19.30;99.90;;;;;;5076040;28;20203;-67
2022/05/17 01:40:52;;;;;;;6.30;2.30;;;19.30;99.90;;;;;;5075698;28;20177;-67
2022/05/17 01:43:18;;;;;;;4.90;2.20;;;19.20;99.90;;;;;;5075964;28;20241;-66
2022/05/17 01:45:44;;;;;;;7.13;2.00;;;19.20;99.90;;;;;;5075999;28;20564;-67
2022/05/17 01:48:09;;;;;;;4.37;1.60;;;19.10;99.90;;;;;;5074499;28;20173;-66
2022/05/17 01:50:35;;;;;;;4.93;1.77;;;19.10;99.90;;;;;;5075906;28;20240;-66
2022/05/17 01:53:00;;;;;;;3.23;2.03;;;19.00;99.90;;;;;;5075977;28;20180;-66
2022/05/17 01:55:26;;;;;;;2.87;1.80;;;19.00;1.00;;;;;;5075518;28;20176;-66
2022/05/17 01:57:52;;;;;;;3.00;1.77;;;19.00;1.00;;;;;;5075541;28;20247;-66
2022/05/17 02:00:20;;;;;;;8.07;1.90;;;19.00;1.00;;;;;;5074215;28;20212;-66
2022/05/17 02:02:45;;;;;;;4.63;2.00;;;19.00;1.00;;;;;;5075577;28;20172;-66
2022/05/17 02:05:11;;;;;;;3.93;1.90;;;19.10;99.90;;;;;;5075500;28;20597;-67
2022/05/17 02:07:37;;;;;;;5.63;2.13;;;19.10;99.90;;;;;;5075549;28;20176;-66
2022/05/17 02:10:04;;;;;;;5.37;1.80;;;19.10;99.90;;;;;;5075124;28;20192;-66
2022/05/17 02:12:29;;;;;;;7.78;2.05;;;19.10;99.90;;;;;;5075475;28;20199;-66
2022/05/17 02:14:55;;;;;;;1.87;1.63;;;19.10;99.90;;;;;;5075487;28;20168;-66
2022/05/17 02:17:22;;;;;;;2.57;1.70;;;19.20;99.90;;;;;;5075335;28;20169;-66
2022/05/17 02:19:47;;;;;;;3.77;1.80;;;19.20;99.90;;;;;;5073944;28;20173;-67
2022/05/17 02:22:13;;;;;;;2.67;1.63;;;19.30;99.90;;;;;;5075130;28;20673;-67
2022/05/17 02:24:39;;;;;;;4.93;1.80;;;19.30;44.10;;;;;;5074803;28;20656;-67
2022/05/17 02:27:04;;;;;;;4.50;2.20;;;19.30;34.40;;;;;;5075175;28;20177;-66
2022/05/17 02:29:30;;;;;;;6.90;2.10;;;19.20;1.00;;;;;;5075250;28;20165;-67
2022/05/17 02:31:57;;;;;;;4.67;1.90;;;19.20;43.70;;;;;;5074969;28;20291;-66
2022/05/17 02:34:22;;;;;;;5.17;2.17;;;19.20;99.90;;;;;;5074959;28;20247;-66
2022/05/17 02:36:48;;;;;;;4.43;1.90;;;19.20;99.90;;;;;;5073586;28;20762;-66
2022/05/17 02:39:14;;;;;;;6.17;1.93;;;19.20;99.90;;;;;;5073689;28;20521;-66
2022/05/17 02:41:40;;;;;;;2.60;1.90;;;19.20;99.90;;;;;;5074618;28;20210;-66
2022/05/17 02:44:06;;;;;;;4.87;1.90;;;19.10;99.90;;;;;;5074910;28;20252;-66
2022/05/17 02:46:32;;;;;;;3.63;1.80;;;19.20;99.90;;;;;;5074247;28;20533;-66
2022/05/17 02:49:01;;;;;;;5.10;1.90;;;19.30;37.40;;;;;;5074841;28;20172;-66
2022/05/17 02:51:27;;;;;;;5.23;1.97;;;19.30;1.00;;;;;;5074539;28;20208;-66
2022/05/17 02:53:53;;;;;;;3.53;1.73;;;19.30;1.00;;;;;;5074475;28;20175;-66
2022/05/17 02:56:18;;;;;;;3.47;1.80;;;19.40;1.00;;;;;;5073121;28;20529;-66
2022/05/17 02:58:44;;;;;;;6.07;1.85;;;19.60;1.00;;;;;;5074346;28;20212;-66
2022/05/17 03:01:09;;;;;;;3.03;1.92;;;19.50;1.00;;;;;;5073318;28;20173;-66
2022/05/17 03:03:42;;;;;;;5.40;2.58;;;19.50;1.00;;;;;;5073219;28;20177;-66
2022/05/17 03:06:09;;;;;;;4.28;1.90;;;19.50;33.00;;;;;;5074231;28;20214;-67
2022/05/17 03:08:35;;;;;;;2.72;1.67;;;19.50;1.00;;;;;;5073766;28;20189;-65
2022/05/17 03:11:05;;;;;;;4.72;1.80;;;19.60;1.00;;;;;;5074203;28;20250;-67
2022/05/17 03:13:30;;;;;;;4.78;1.83;;;19.60;1.00;;;;;;5074123;28;20176;-67
2022/05/17 03:15:56;;;;;;;6.40;2.20;;;19.70;1.00;;;;;;5073982;28;20176;-67
2022/05/17 03:18:22;;;;;;;4.13;2.00;;;19.60;1.00;;;;;;5074013;28;20504;-67
2022/05/17 03:20:48;;;;;;;4.35;2.47;;;19.70;1.00;;;;;;5073590;28;20169;-67
2022/05/17 03:23:14;;;;;;;6.13;2.70;;;19.80;1.00;;;;;;5073396;28;20176;-66
2022/05/17 03:25:40;;;;;;;7.25;2.70;;;19.70;1.00;;;;;;5073977;28;20176;-67
2022/05/17 03:28:06;;;;;;;8.63;3.10;;;19.70;1.00;;;;;;5074055;28;20169;-66
2022/05/17 03:30:32;;;;;;;5.72;2.95;;;19.70;9.50;;;;;;5073874;28;20200;-67
2022/05/17 03:32:58;;;;;;;3.95;2.17;;;19.50;71.60;;;;;;5072538;28;20184;-67
2022/05/17 03:35:24;;;;;;;9.77;2.50;;;19.20;99.90;;;;;;5073559;28;20259;-67
2022/05/17 03:37:50;;;;;;;3.87;1.93;;;19.00;1.00;;;;;;5072846;28;20260;-66
2022/05/17 03:40:16;;;;;;;6.00;2.33;;;19.00;1.00;;;;;;5073439;28;20260;-66
2022/05/17 03:42:41;;;;;;;4.77;2.07;;;19.00;1.00;;;;;;5071973;28;20512;-67
2022/05/17 03:45:08;;;;;;;8.00;2.53;;;19.00;1.00;;;;;;5073385;28;20183;-67
2022/05/17 03:47:34;;;;;;;5.97;2.07;;;19.00;1.00;;;;;;5073339;28;20165;-66
2022/05/17 03:50:00;;;;;;;4.70;2.30;;;19.10;1.00;;;;;;5073237;28;20183;-67
2022/05/17 03:52:27;;;;;;;6.17;2.43;;;19.10;1.00;;;;;;5072584;28;20684;-67
2022/05/17 03:54:56;;;;;;;5.80;2.33;;;19.00;99.90;;;;;;5072869;28;20203;-67
2022/05/17 03:57:23;;;;;;;6.53;2.50;;;18.90;1.00;;;;;;5073156;28;20173;-66
2022/05/17 03:59:49;;;;;;;4.67;2.60;;;18.90;85.70;;;;;;5072473;28;20216;-67
2022/05/17 04:02:15;;;;;;;6.77;2.57;;;18.80;1.00;;;;;;5072975;28;20180;-67
2022/05/17 04:04:40;;;;;;;6.43;2.87;;;18.80;99.90;;;;;;5073107;28;20206;-67
2022/05/17 04:07:06;;;;;;;7.77;2.60;;;18.80;99.90;;;;;;5072861;28;20177;-67
2022/05/17 04:09:32;;;;;;;6.97;2.77;;;18.80;1.00;;;;;;5073022;28;20574;-67
2022/05/17 04:11:57;;;;;;;7.50;3.20;;;18.90;99.90;;;;;;5072727;28;20269;-67
2022/05/17 04:14:23;;;;;;;6.70;2.83;;;18.90;99.90;;;;;;5072906;28;20173;-67
2022/05/17 04:16:50;;;;;;;6.50;2.70;;;18.80;99.90;;;;;;5072864;28;20670;-67
2022/05/17 04:19:16;;;;;;;4.50;2.83;;;18.70;1.00;;;;;;5073180;28;20165;-67
2022/05/17 04:21:43;;;;;;;5.53;2.57;;;18.60;1.00;;;;;;5072400;28;20492;-67
2022/05/17 04:24:10;;;;;;;7.37;3.20;;;18.60;99.90;;;;;;5072852;28;20202;-66
2022/05/17 04:26:36;;;;;;;4.80;2.50;;;18.60;99.90;;;;;;5072651;28;20184;-66
2022/05/17 04:29:02;;;;;;;5.10;2.70;;;18.60;1.00;;;;;;5073323;28;20178;-66
2022/05/17 04:31:28;;;;;;;5.17;3.00;;;18.50;36.10;;;;;;5072801;28;20203;-66
2022/05/17 04:33:54;;;;;;;4.57;3.00;;;18.50;1.00;;;;;;5071937;28;20268;-66
2022/05/17 04:36:19;;;;;;;5.50;2.97;;;18.40;1.00;;;;;;5072661;28;20608;-66
2022/05/17 04:38:45;;;;;;;4.77;3.33;;;18.50;25.20;;;;;;5072673;28;20184;-67
2022/05/17 04:41:11;;;;;;;5.77;3.20;;;18.40;99.90;;;;;;5071137;28;20690;-66
2022/05/17 04:43:38;;;;;;;5.50;3.30;;;18.40;1.00;;;;;;5072226;28;20699;-67
2022/05/17 04:46:04;;;;;;;5.93;3.53;;;18.50;99.90;;;;;;5072597;28;20176;-67
2022/05/17 04:48:29;;;;;;;6.37;3.50;;;18.40;1.00;;;;;;5072387;28;20165;-66
2022/05/17 04:50:55;;;;;;;4.23;3.30;;;18.30;1.00;;;;;;5072086;28;20638;-66
2022/05/17 04:53:21;;;;;;;4.97;3.40;;;18.20;99.90;;;;;;5071742;28;20191;-66
2022/05/17 04:55:47;;;;;;;6.63;3.70;;;18.30;99.90;;;;;;5072451;28;20165;-67
2022/05/17 04:58:12;;;;;;;5.77;3.70;;;18.40;1.00;;;;;;5072339;28;20168;-67
2022/05/17 05:00:38;;;;;;;4.70;3.27;;;18.40;1.00;;;;;;5071887;28;20216;-67
2022/05/17 05:03:04;;;;;;;7.33;3.60;;;18.30;99.90;;;;;;5070487;28;20181;-67
2022/05/17 05:05:30;;;;;;;6.30;3.97;;;18.30;99.90;;;;;;5072103;28;20172;-67
2022/05/17 05:07:56;;;;;;;6.60;3.80;;;18.40;99.90;;;;;;5072221;28;20220;-67
2022/05/17 05:10:22;;;;;;;7.00;3.90;;;18.40;99.90;;;;;;5072944;28;20678;-67
2022/05/17 05:12:49;;;;;;;4.60;3.80;;;18.40;70.40;;;;;;5075646;28;20178;-66
2022/05/17 05:15:15;;;;;;;5.70;3.47;;;18.40;83.90;;;;;;5075670;28;20226;-66
2022/05/17 05:17:42;;;;;;;6.00;3.97;;;18.40;99.90;;;;;;5075004;28;20173;-67
2022/05/17 05:20:12;;;;;;;6.60;3.83;;;18.40;99.90;;;;;;5075015;28;20176;-67
2022/05/17 05:22:38;;;;;;;8.63;4.20;;;18.50;99.90;;;;;;5075696;28;20169;-66
2022/05/17 05:25:04;;;;;;;6.97;3.77;;;18.50;99.90;;;;;;5075550;28;20653;-66
2022/05/17 05:27:34;;;;;;;6.20;4.23;;;18.50;99.90;;;;;;5075092;28;20203;-67
2022/05/17 05:30:02;;;;;;;11.87;4.70;;;18.70;90.80;;;;;;5075196;28;20172;-66
2022/05/17 05:32:28;;;;;;;5.67;4.17;;;18.80;1.00;;;;;;5073608;28;20220;-67
2022/05/17 05:34:53;;;;;;;12.73;4.60;;;18.90;99.90;;;;;;5074498;28;20256;-67
2022/05/17 05:37:19;;;;;;;6.57;4.10;;;18.80;99.90;;;;;;5075116;28;20536;-67
2022/05/17 05:39:45;;;;;;;8.57;4.27;;;18.90;1.00;;;;;;5074693;28;20173;-66
2022/05/17 05:42:10;;;;;;;7.73;4.50;;;18.90;99.90;;;;;;5074873;28;20693;-66
2022/05/17 05:44:36;;;;;;;4.80;4.10;;;18.90;99.90;;;;;;5074867;28;20180;-68
2022/05/17 05:47:02;;;;;;;7.80;4.00;;;19.00;72.50;;;;;;5073901;28;20268;-67
2022/05/17 05:49:27;;;;;;;7.37;4.30;;;18.90;99.90;;;;;;5074819;28;20184;-68
2022/05/17 05:51:53;;;;;;;7.07;3.90;;;19.00;99.90;;;;;;5074053;28;20678;-66
2022/05/17 05:54:19;;;;;;;7.40;4.07;;;18.80;1.00;;;;;;5074010;28;20687;-66
2022/05/17 05:56:44;;;;;;;7.17;4.03;;;18.70;1.00;;;;;;5073950;28;20191;-67
2022/05/17 05:59:10;;;;;;;10.20;4.63;;;18.80;36.00;;;;;;5074041;28;20691;-67
2022/05/17 06:01:36;;;;;;;11.33;5.00;;;18.90;1.00;;;;;;5074006;28;20532;-66
2022/05/17 06:04:03;;;;;;;9.57;4.43;;;18.90;1.00;;;;;;5074732;28;20202;-66
2022/05/17 06:06:28;;;;;;;8.37;4.67;;;19.00;1.00;;;;;;5074195;28;20169;-66
2022/05/17 06:08:55;;;;;;;14.73;5.20;;;18.90;1.00;;;;;;5074054;28;20519;-67
2022/05/17 06:11:21;;;;;;;6.53;4.00;;;18.90;99.90;;;;;;5073699;28;20192;-67
2022/05/17 06:13:47;;;;;;;13.13;5.63;;;18.70;99.90;;;;;;5074616;28;20189;-67
2022/05/17 06:16:12;;;;;;;7.70;4.60;;;18.80;1.00;;;;;;5073831;28;20169;-66
2022/05/17 06:18:38;;;;;;;9.97;4.80;;;18.90;1.00;;;;;;5074220;28;20259;-66
2022/05/17 06:21:04;;;;;;;10.13;5.60;;;19.00;1.00;;;;;;5073365;28;20176;-67
2022/05/17 06:23:31;;;;;;;8.53;5.10;;;19.10;99.90;;;;;;5073146;28;20173;-66
2022/05/17 06:25:57;;;;;;;15.37;5.63;;;19.20;99.90;;;;;;5073027;28;20173;-66
2022/05/17 06:28:23;;;;;;;28.30;5.97;;;19.40;1.00;;;;;;5072874;28;20218;-67
2022/05/17 06:30:49;;;;;;;24.25;7.10;;;19.50;1.00;;;;;;5072558;28;20675;-66
2022/05/17 06:33:15;;;;;;;13.20;6.00;;;19.60;1.00;;;;;;5073310;28;20576;-66
2022/05/17 06:35:45;;;;;;;18.67;6.38;;;19.60;99.90;;;;;;5072280;28;20196;-66
2022/05/17 06:38:12;;;;;;;13.27;5.70;;;19.50;1.00;;;;;;5071864;28;20222;-65
2022/05/17 06:40:38;;;;;;;16.27;5.32;;;19.60;99.90;;;;;;5073212;28;20182;-66
2022/05/17 06:43:04;;;;;;;13.80;5.25;;;19.60;99.90;;;;;;5073374;28;20172;-67
2022/05/17 06:45:30;;;;;;;22.02;5.95;;;19.70;99.90;;;;;;5071899;28;20530;-66
2022/05/17 06:47:56;;;;;;;15.15;5.85;;;19.70;99.90;;;;;;5072838;28;20239;-66
2022/05/17 06:50:21;;;;;;;16.10;5.43;;;19.70;99.90;;;;;;5073573;28;20180;-66
2022/05/17 06:52:47;;;;;;;17.15;5.15;;;19.60;99.90;;;;;;5073262;28;20223;-64
2022/05/17 06:55:14;;;;;;;20.20;5.75;;;19.60;99.90;;;;;;5065161;28;20624;-65
2022/05/17 06:57:40;;;;;;;25.73;6.43;;;19.60;99.90;;;;;;5055571;28;20185;-66
2022/05/17 07:00:08;;;;;;;23.98;7.10;;;19.90;99.90;;;;;;5053457;28;20316;-66
2022/05/17 07:02:35;;;;;;;16.95;6.40;;;20.00;99.90;;;;;;5059261;28;20173;-65
2022/05/17 07:05:00;;;;;;;19.58;6.45;;;20.30;70.10;;;;;;5067831;28;20176;-66
2022/05/17 07:07:26;;;;;;;20.52;6.68;;;20.30;1.00;;;;;;5062588;28;20184;-66
2022/05/17 07:15:21;;;;;;;23.05;6.07;;;20.10;1.00;;;;;;5062623;28;20549;-66
2022/05/17 07:17:47;;;;;;;28.98;6.75;;;20.30;1.00;;;;;;5053089;28;20271;-67
2022/05/17 07:20:14;;;;;;;17.88;5.88;;;20.60;99.90;;;;;;5050318;28;20177;-66
2022/05/17 07:22:40;;;;;;;20.85;5.97;;;20.90;99.90;;;;;;5056635;28;20204;-66
2022/05/17 07:25:07;;;;;;;15.20;5.53;;;21.40;1.00;;;;;;5057200;28;20196;-67
2022/05/17 07:27:33;;;;;;;11.30;5.47;;;21.60;99.90;;;;;;5057789;28;20268;-66
2022/05/17 07:29:58;;;;;;;16.02;5.47;;;21.80;99.90;;;;;;5056090;28;20259;-66
2022/05/17 07:32:24;;;;;;;23.10;5.63;;;21.90;1.00;;;;;;5057835;28;20615;-66
2022/05/17 07:34:49;;;;;;;22.52;5.63;;;22.30;12.30;;;;;;5058063;28;20708;-66
2022/05/17 07:37:16;;;;;;;24.02;6.10;;;22.80;99.90;;;;;;5061623;28;20180;-66
2022/05/17 07:39:41;;;;;;;12.90;6.03;;;23.20;1.00;;;;;;5057781;28;20174;-66
2022/05/17 07:42:08;;;;;;;9.45;5.13;;;23.50;99.90;;;;;;5057044;28;20317;-65
2022/05/17 07:44:34;;;;;;;12.10;5.25;;;23.80;1.00;;;;;;5069879;28;20176;-66
2022/05/17 07:47:01;;;;;;;6.63;4.70;;;23.90;1.00;;;;;;5058849;28;20694;-66
2022/05/17 07:49:27;;;;;;;8.15;4.40;;;23.80;1.00;;;;;;5052005;28;20177;-66
2022/05/17 07:51:53;;;;;;;6.28;4.68;;;23.60;1.00;;;;;;5051955;28;20551;-67
2022/05/17 07:54:19;;;;;;;6.40;4.38;;;23.50;1.00;;;;;;5058994;28;20222;-68
2022/05/17 07:56:44;;;;;;;5.82;4.70;;;23.50;1.00;;;;;;5068046;28;20184;-68
2022/05/17 07:59:10;;;;;;;10.55;5.05;;;23.40;1.00;;;;;;5053485;28;20221;-68
2022/05/17 08:01:36;;;;;;;6.20;4.80;;;23.20;1.00;;;;;;5057287;28;20260;-67
2022/05/17 08:04:03;;;;;;;8.07;4.32;;;23.50;1.00;;;;;;5054388;28;20605;-69
2022/05/17 08:06:29;;;;;;;9.45;4.70;;;23.70;1.00;;;;;;5061837;28;20181;-69
2022/05/17 08:08:55;;;;;;;5.57;4.60;;;23.70;1.00;;;;;;5051888;28;20528;-69
2022/05/17 08:11:20;;;;;;;7.57;4.78;;;23.70;1.00;;;;;;5050926;28;20204;-71
2022/05/17 08:13:46;;;;;;;7.72;4.63;;;23.70;1.00;;;;;;5051617;28;20196;-69
2022/05/17 08:16:12;;;;;;;7.25;4.95;;;23.70;1.00;;;;;;5055977;28;20700;-70
2022/05/17 08:18:37;;;;;;;7.45;4.82;;;23.90;1.00;;;;;;5063529;28;20196;-70
2022/05/17 08:21:03;;;;;;;5.53;5.00;;;23.90;1.00;;;;;;5057019;28;20263;-70
2022/05/17 08:23:29;;;;;;;11.73;5.15;;;24.10;1.00;;;;;;5062378;28;20681;-70
2022/05/17 08:28:39;;;;;;;6.68;5.05;;;25.80;1.00;;;;;;5056263;28;20179;-70
2022/05/17 08:31:04;;;;;;;5.60;5.05;;;26.00;99.90;;;;;;5056835;28;20220;-71
2022/05/17 08:33:30;;;;;;;7.25;5.38;;;26.90;99.90;;;;;;5058185;28;20188;-72
2022/05/17 08:35:57;;;;;;;6.90;4.90;;;27.80;99.90;;;;;;5053195;28;20275;-71
2022/05/17 08:38:23;;;;;;;7.45;4.70;;;29.40;99.90;;;;;;5052408;28;20177;-71
2022/05/17 08:41:13;;;;;;;6.30;4.45;;;29.70;99.90;;;;;;5053444;28;20763;-70
2022/05/17 08:43:54;;;;;;;5.30;4.80;;;30.30;99.90;;;;;;5054384;28;20231;-69
2022/05/17 08:46:38;;;;;;;6.03;4.90;;;30.70;99.90;;;;;;5054537;28;20243;-70
2022/05/17 08:49:19;;;;;;;8.73;4.43;;;31.10;99.90;;;;;;5059752;28;20196;-69
2022/05/17 08:51:47;;;;;;;7.72;4.90;;;31.70;99.90;;;;;;5056569;28;20208;-73
2022/05/17 08:54:17;;;;;;;8.88;5.13;;;32.10;99.90;;;;;;5056505;28;20307;-72
2022/05/17 08:57:17;;;;;;;6.53;5.20;;;32.60;99.90;;;;;;5061330;28;20188;-72
2022/05/17 08:59:47;;;;;;;5.38;4.90;;;32.90;99.90;;;;;;5058387;28;20266;-71
2022/05/17 09:02:30;;;;;;;11.07;5.57;;;34.00;99.10;;;;;;5056394;28;20269;-71
2022/05/17 09:05:23;;;;;;;9.20;5.05;;;32.90;99.00;;;;;;5071040;28;20222;-71
2022/05/17 09:08:08;;;;;;;7.55;4.82;;;33.70;95.90;;;;;;5067919;28;20280;-71
2022/05/17 09:10:36;;;;;;;5.93;4.68;;;33.80;88.10;;;;;;5055134;28;20196;-71
2022/05/17 09:13:06;;;;;;;5.57;4.75;;;34.60;73.30;;;;;;5060538;28;20187;-70
2022/05/17 09:15:32;;;;;;;6.72;4.13;;;34.50;68.10;;;;;;5059543;28;20173;-71
2022/05/17 09:18:05;;;;;;;7.78;4.22;;;34.10;56.50;;;;;;5064507;28;20184;-71
2022/05/17 09:20:34;;;;;;;5.22;3.90;;;33.40;60.30;;;;;;5057314;28;20621;-71
2022/05/17 09:23:00;;;;;;;4.28;3.95;;;34.00;57.00;;;;;;5067234;28;20259;-70
2022/05/17 09:25:44;;;;;;;8.05;4.05;;;33.70;52.80;;;;;;5055701;28;20180;-71
2022/05/17 09:28:12;;;;;;;4.85;4.00;;;33.70;50.70;;;;;;5062644;28;20325;-70
2022/05/17 09:30:39;;;;;;;5.15;3.90;;;34.40;49.50;;;;;;5060662;28;20185;-70
2022/05/17 09:33:04;;;;;;;5.63;4.00;;;33.80;48.50;;;;;;5063120;28;20180;-71
2022/05/17 09:35:32;;;;;;;7.65;4.13;;;34.30;43.80;;;;;;5064528;28;20192;-71
2022/05/17 09:38:02;;;;;;;6.88;4.10;;;34.40;39.60;;;;;;5056259;28;20181;-70
2022/05/17 09:40:30;;;;;;;3.95;3.60;;;34.60;36.40;;;;;;5056597;28;20700;-69
2022/05/17 09:43:06;;;;;;;5.82;3.63;;;33.80;36.20;;;;;;5059287;28;20224;-69
2022/05/17 09:45:50;;;;;;;5.25;3.78;;;33.40;40.70;;;;;;5056273;28;20176;-71
2022/05/17 09:54:32;;;;;;;4.68;4.05;;;32.80;45.50;;;;;;5053931;28;20184;-70
2022/05/17 09:57:25;;;;;;;5.15;4.28;;;32.20;44.70;;;;;;5053864;28;20181;-70
2022/05/17 10:00:12;;;;;;;5.88;3.42;;;31.90;47.80;;;;;;5056148;28;20225;-69
2022/05/17 10:02:49;;;;;;;5.25;3.40;;;31.60;53.70;;;;;;5057470;28;20546;-70
2022/05/17 10:05:44;;;;;;;4.13;3.38;;;32.00;53.20;;;;;;5058122;28;20172;-69
2022/05/17 10:08:12;;;;;;;4.25;3.45;;;32.70;50.10;;;;;;5053724;28;20276;-70
2022/05/17 10:10:46;;;;;;;4.03;3.33;;;31.80;49.80;;;;;;5073039;28;20643;-69
2022/05/17 10:13:26;;;;;;;5.40;3.33;;;31.90;50.90;;;;;;5064341;28;20172;-69
2022/05/17 10:16:02;;;;;;;5.88;3.72;;;31.90;50.30;;;;;;5069058;28;20220;-70
2022/05/17 10:18:30;;;;;;;4.93;3.22;;;32.00;50.80;;;;;;5073366;28;20176;-71
2022/05/17 10:21:12;;;;;;;5.57;3.53;;;32.80;48.10;;;;;;5074153;28;20218;-71
2022/05/17 10:23:50;;;;;;;6.45;3.55;;;32.80;44.60;;;;;;5073458;28;20865;-70
2022/05/17 10:26:19;;;;;;;7.63;3.40;;;33.30;40.80;;;;;;5073961;28;20186;-70
2022/05/17 10:29:05;;;;;;;6.30;3.58;;;33.50;38.70;;;;;;5074122;28;20165;-70
2022/05/17 10:32:04;;;;;;;6.32;3.47;;;33.60;37.60;;;;;;5073415;28;20261;-69
2022/05/17 10:34:54;;;;;;;6.05;2.92;;;33.00;36.20;;;;;;5062312;28;20212;-70
2022/05/17 10:37:25;;;;;;;9.50;3.88;;;32.50;35.90;;;;;;5072522;28;20168;-68
2022/05/17 10:40:04;;;;;;;6.57;3.13;;;31.90;37.50;;;;;;5073773;28;20635;-70
2022/05/17 10:42:30;;;;;;;6.38;2.75;;;31.70;36.60;;;;;;5073967;28;20532;-71
2022/05/17 10:44:58;;;;;;;7.18;2.92;;;32.00;38.40;;;;;;5073674;28;20183;-71
2022/05/17 10:47:52;;;;;;;5.15;3.00;;;32.40;33.60;;;;;;5073751;28;20264;-70
2022/05/17 10:50:42;;;;;;;8.20;2.90;;;32.60;42.90;;;;;;5072749;28;20651;-73
2022/05/17 10:53:22;;;;;;;7.82;3.13;;;32.10;32.90;;;;;;5064112;28;20238;-72
2022/05/17 10:56:03;;;;;;;5.75;2.72;;;32.50;32.00;;;;;;5072419;28;20180;-72
2022/05/17 10:58:49;;;;;;;14.15;4.15;;;32.50;30.30;;;;;;5069658;28;20237;-72
2022/05/17 11:01:56;;;;;;;5.10;2.83;;;32.80;29.20;;;;;;5073054;28;20206;-70
2022/05/17 11:04:57;;;;;;;4.35;3.30;;;33.20;28.20;;;;;;5020497;28;20187;-70
2022/05/17 11:07:51;;;;;;;4.25;2.72;;;33.50;26.20;;;;;;5063129;28;20168;-69
2022/05/17 11:10:28;;;;;;;4.32;2.72;;;33.30;23.10;;;;;;5043459;28;20243;-69
2022/05/17 11:13:15;;;;;;;3.10;2.58;;;33.30;23.50;;;;;;5053167;28;20652;-70
2022/05/17 11:16:01;;;;;;;3.90;2.60;;;33.30;20.00;;;;;;5053439;28;20188;-70
2022/05/17 11:18:34;;;;;;;16.35;3.15;;;32.90;22.20;;;;;;5051336;28;20256;-70
2022/05/17 11:21:05;;;;;;;2.33;2.05;;;32.30;22.10;;;;;;5053124;28;20227;-68
2022/05/17 11:24:05;;;;;;;8.13;2.75;;;31.20;24.00;;;;;;5053619;28;20193;-68
2022/05/17 11:26:52;;;;;;;3.65;2.40;;;30.20;29.00;;;;;;5063844;28;20206;-68
2022/05/17 11:29:35;;;;;;;5.13;3.03;;;30.30;29.80;;;;;;5051088;28;20173;-69
2022/05/17 11:32:23;;;;;;;4.70;2.55;;;30.20;29.30;;;;;;5052484;28;20216;-69
2022/05/17 11:34:50;;;;;;;5.10;2.25;;;30.50;29.90;;;;;;5052800;28;20169;-69
2022/05/17 11:37:34;;;;;;;4.25;2.53;;;31.00;26.50;;;;;;5052695;28;20658;-68
2022/05/17 11:40:08;;;;;;;4.75;2.25;;;31.00;24.30;;;;;;5052588;28;20207;-68
2022/05/17 11:42:36;;;;;;;5.57;2.17;;;31.30;24.90;;;;;;5054617;28;20175;-69
2022/05/17 11:45:21;;;;;;;6.47;2.30;;;31.60;23.20;;;;;;5061075;28;20198;-68
2022/05/17 11:47:54;;;;;;;7.68;2.75;;;31.70;20.30;;;;;;5049681;28;20157;-68
2022/05/17 11:50:42;;;;;;;5.13;2.30;;;31.30;16.60;;;;;;5067104;28;20180;-67
2022/05/17 11:53:23;;;;;;;5.45;2.67;;;31.20;22.00;;;;;;5070696;28;20180;-68
2022/05/17 11:56:18;;;;;;;4.97;2.00;;;31.30;19.40;;;;;;5054335;28;20191;-67
2022/05/17 11:58:46;;;;;;;10.65;2.13;;;31.40;17.50;;;;;;5050912;28;20181;-69
2022/05/17 12:01:31;;;;;;;5.88;2.17;;;30.60;14.10;;;;;;5058381;28;20651;-67
2022/05/17 12:04:07;;;;;;;4.88;2.15;;;30.70;11.80;;;;;;5053371;28;20659;-67
2022/05/17 12:06:43;;;;;;;3.53;1.70;;;30.50;10.00;;;;;;5067765;28;20168;-68
2022/05/17 12:09:33;;;;;;;2.05;1.45;;;30.50;6.70;;;;;;5052945;28;20196;-68
2022/05/17 12:12:09;;;;;;;5.63;1.80;;;30.00;10.00;;;;;;5054688;28;20706;-66
2022/05/17 12:14:56;;;;;;;5.78;1.80;;;30.00;9.90;;;;;;5061517;28;20173;-69
2022/05/17 12:17:30;;;;;;;4.90;1.80;;;30.80;10.90;;;;;;5052500;28;20180;-67
2022/05/17 12:20:29;;;;;;;3.35;1.70;;;30.80;7.20;;;;;;5048952;28;20177;-68
2022/05/17 12:23:14;;;;;;;5.47;1.50;;;31.00;5.70;;;;;;5054327;28;20255;-68
2022/05/17 12:25:51;;;;;;;4.55;1.75;;;30.80;1.00;;;;;;5056398;28;20173;-67
2022/05/17 12:28:32;;;;;;;10.15;2.03;;;30.80;1.00;;;;;;5067464;28;20279;-68
2022/05/17 12:31:01;;;;;;;4.15;1.70;;;30.90;1.00;;;;;;5066771;28;20205;-68
2022/05/17 12:33:41;;;;;;;4.55;2.20;;;30.50;1.00;;;;;;5071420;28;20172;-68
2022/05/17 12:36:23;;;;;;;7.68;2.08;;;30.70;1.00;;;;;;5056505;28;20171;-68
2022/05/17 12:44:38;;;;;;;5.60;2.00;;;30.20;1.00;;;;;;5067433;28;20179;-68
2022/05/17 12:47:10;;;;;;;3.88;1.25;;;30.40;7.90;;;;;;5059263;28;20170;-68
2022/05/17 12:49:38;;;;;;;5.10;1.40;;;30.00;1.00;;;;;;5055147;28;20192;-67
2022/05/17 12:52:21;;;;;;;4.10;1.60;;;29.80;1.00;;;;;;5057068;28;20668;-67
2022/05/17 12:54:50;;;;;;;2.22;1.67;;;29.90;1.00;;;;;;5058708;28;20180;-68
2022/05/17 12:57:20;;;;;;;5.28;1.33;;;30.00;1.00;;;;;;5063615;28;20686;-67
2022/05/17 12:59:46;;;;;;;4.57;1.20;;;30.10;1.00;;;;;;5061470;28;20239;-69
2022/05/17 13:02:23;;;;;;;2.28;1.38;;;30.30;1.00;;;;;;5069927;28;20180;-67
2022/05/17 13:04:49;;;;;;;5.40;2.35;;;29.80;1.00;;;;;;5068311;28;20211;-68
2022/05/17 13:07:17;;;;;;;6.70;1.90;;;30.10;1.00;;;;;;5058363;28;20216;-68
2022/05/17 13:10:12;;;;;;;2.50;1.30;;;30.10;1.00;;;;;;5057850;28;20655;-68
2022/05/17 13:12:40;;;;;;;2.25;1.70;;;30.30;1.00;;;;;;5023785;28;20214;-70
2022/05/17 13:15:08;;;;;;;5.28;1.30;;;30.10;2.20;;;;;;5017702;28;20182;-69
2022/05/17 13:17:38;;;;;;;5.28;1.25;;;29.90;1.00;;;;;;5019362;28;20191;-69
2022/05/17 13:20:18;;;;;;;3.58;1.30;;;30.00;1.00;;;;;;5026453;28;20232;-70
2022/05/17 13:22:51;;;;;;;2.97;1.20;;;30.20;1.00;;;;;;5020953;28;20237;-69
2022/05/17 13:25:19;;;;;;;4.70;1.50;;;30.00;1.00;;;;;;5029640;28;20170;-69
2022/05/17 13:27:49;;;;;;;5.30;1.30;;;29.90;1.00;;;;;;5029128;28;20265;-69